ROU1626 CYYZ-KFLL
Flight info
| Callsign | ROU1626 |
|---|---|
| Flight time | 1h 38m |
| Altitude | 34000 |
| Route | BETES3 AIRRA Q103 SLOJO/N0443F350 DCT EFFAY/N0443F340 Q83 JEVED Q97 PRMUS CUUDA3 |
| Aircraft | A321/M-SDE3FGHIRWY/LB1 |
Departure
| Time | 2026-05-05 05:40 |
|---|---|
| Airport | Toronto Pearson International Airport (CYYZ) |
Arrival
| Time | 2026-05-05 07:18 |
|---|---|
| Airport | Fort Lauderdale Hollywood International Airport (KFLL) |
| Time | Latitude | Longitude | Altitude | Speed | Heading |
|---|---|---|---|---|---|
| 2026-05-05 05:30 | 43.67770 | -79.61900 | 565 ft | 0 kts | 316° |
| 2026-05-05 05:31 | 43.67797 | -79.61934 | 563 ft | 11 kts | 316° |
| 2026-05-05 05:31 | 43.67854 | -79.62010 | 565 ft | 11 kts | 316° |
| 2026-05-05 05:32 | 43.67912 | -79.62066 | 565 ft | 10 kts | 340° |
| 2026-05-05 05:32 | 43.67969 | -79.62100 | 567 ft | 8 kts | 328° |
| 2026-05-05 05:32 | 43.68007 | -79.62145 | 565 ft | 6 kts | 314° |
| 2026-05-05 05:32 | 43.68052 | -79.62206 | 565 ft | 14 kts | 316° |
| 2026-05-05 05:33 | 43.68121 | -79.62298 | 566 ft | 13 kts | 316° |
| 2026-05-05 05:33 | 43.68185 | -79.62381 | 565 ft | 14 kts | 318° |
| 2026-05-05 05:33 | 43.68267 | -79.62477 | 567 ft | 15 kts | 320° |
| 2026-05-05 05:33 | 43.68342 | -79.62570 | 565 ft | 14 kts | 316° |
| 2026-05-05 05:34 | 43.68411 | -79.62661 | 567 ft | 14 kts | 316° |
| 2026-05-05 05:34 | 43.68496 | -79.62773 | 562 ft | 18 kts | 316° |
| 2026-05-05 05:34 | 43.68583 | -79.62888 | 561 ft | 17 kts | 316° |
| 2026-05-05 05:34 | 43.68665 | -79.62994 | 569 ft | 16 kts | 317° |
| 2026-05-05 05:35 | 43.68741 | -79.63092 | 571 ft | 14 kts | 317° |
| 2026-05-05 05:35 | 43.68808 | -79.63179 | 568 ft | 13 kts | 317° |
| 2026-05-05 05:35 | 43.68868 | -79.63256 | 562 ft | 11 kts | 317° |
| 2026-05-05 05:35 | 43.68925 | -79.63330 | 569 ft | 11 kts | 317° |
| 2026-05-05 05:36 | 43.69009 | -79.63439 | 565 ft | 20 kts | 316° |
| 2026-05-05 05:36 | 43.69094 | -79.63535 | 566 ft | 12 kts | 349° |
| 2026-05-05 05:36 | 43.69153 | -79.63482 | 567 ft | 9 kts | 46° |
| 2026-05-05 05:36 | 43.69209 | -79.63430 | 565 ft | 10 kts | 16° |
| 2026-05-05 05:37 | 43.69282 | -79.63421 | 563 ft | 11 kts | 3° |
| 2026-05-05 05:37 | 43.69317 | -79.63418 | 568 ft | 0 kts | 3° |
| 2026-05-05 05:37 | 43.69318 | -79.63418 | 568 ft | 1 kts | 3° |
| 2026-05-05 05:37 | 43.69362 | -79.63431 | 567 ft | 11 kts | 334° |
| 2026-05-05 05:38 | 43.69413 | -79.63490 | 568 ft | 2 kts | 310° |
| 2026-05-05 05:38 | 43.69411 | -79.63506 | 568 ft | 2 kts | 248° |
| 2026-05-05 05:38 | 43.69398 | -79.63524 | 560 ft | 3 kts | 226° |
| 2026-05-05 05:38 | 43.69398 | -79.63525 | 560 ft | 0 kts | 226° |
| 2026-05-05 05:39 | 43.69387 | -79.63540 | 565 ft | 9 kts | 226° |
| 2026-05-05 05:39 | 43.69242 | -79.63754 | 563 ft | 67 kts | 227° |
| 2026-05-05 05:39 | 43.68743 | -79.64478 | 570 ft | 138 kts | 226° |
| 2026-05-05 05:40 | 43.67965 | -79.65608 | 582 ft | 187 kts | 226° |
| 2026-05-05 05:40 | 43.67021 | -79.66967 | 1154 ft | 193 kts | 229° |
| 2026-05-05 05:40 | 43.66244 | -79.68395 | 2137 ft | 186 kts | 234° |
| 2026-05-05 05:40 | 43.65521 | -79.69895 | 2797 ft | 191 kts | 238° |
| 2026-05-05 05:41 | 43.64758 | -79.71507 | 3061 ft | 210 kts | 238° |
| 2026-05-05 05:41 | 43.63930 | -79.73231 | 3631 ft | 219 kts | 238° |
| 2026-05-05 05:41 | 43.63069 | -79.74993 | 4337 ft | 223 kts | 238° |
| 2026-05-05 05:41 | 43.62038 | -79.76632 | 4992 ft | 233 kts | 220° |
| 2026-05-05 05:42 | 43.60482 | -79.77482 | 5608 ft | 254 kts | 191° |
| 2026-05-05 05:42 | 43.59132 | -79.77261 | 6096 ft | 271 kts | 169° |
| 2026-05-05 05:42 | 43.58083 | -79.76737 | 6479 ft | 275 kts | 166° |
| 2026-05-05 05:42 | 43.56289 | -79.75767 | 7140 ft | 279 kts | 166° |
| 2026-05-05 05:43 | 43.54476 | -79.74759 | 7792 ft | 283 kts | 165° |
| 2026-05-05 05:43 | 43.52640 | -79.73734 | 8467 ft | 286 kts | 165° |
| 2026-05-05 05:43 | 43.50780 | -79.72704 | 9135 ft | 289 kts | 165° |
| 2026-05-05 05:43 | 43.48900 | -79.71674 | 9788 ft | 292 kts | 165° |
| 2026-05-05 05:44 | 43.46997 | -79.70639 | 10307 ft | 300 kts | 165° |
| 2026-05-05 05:44 | 43.44979 | -79.69588 | 10431 ft | 319 kts | 169° |
| 2026-05-05 05:44 | 43.42766 | -79.68949 | 10584 ft | 331 kts | 180° |
| 2026-05-05 05:44 | 43.40460 | -79.68980 | 11031 ft | 331 kts | 192° |
| 2026-05-05 05:45 | 43.38222 | -79.69656 | 11626 ft | 329 kts | 203° |
| 2026-05-05 05:45 | 43.36087 | -79.70777 | 12255 ft | 329 kts | 206° |
| 2026-05-05 05:45 | 43.33946 | -79.71923 | 12894 ft | 331 kts | 206° |
| 2026-05-05 05:45 | 43.31818 | -79.73061 | 13514 ft | 334 kts | 206° |
| 2026-05-05 05:46 | 43.29644 | -79.74223 | 14086 ft | 336 kts | 206° |
| 2026-05-05 05:46 | 43.27462 | -79.75391 | 14650 ft | 338 kts | 206° |
| 2026-05-05 05:46 | 43.25241 | -79.76514 | 15195 ft | 343 kts | 201° |
| 2026-05-05 05:46 | 43.22910 | -79.77322 | 15740 ft | 347 kts | 199° |
| 2026-05-05 05:47 | 43.20556 | -79.78122 | 16282 ft | 349 kts | 199° |
| 2026-05-05 05:47 | 43.18190 | -79.78928 | 16815 ft | 352 kts | 199° |
| 2026-05-05 05:47 | 43.15799 | -79.79740 | 17312 ft | 355 kts | 199° |
| 2026-05-05 05:47 | 43.13393 | -79.80555 | 17838 ft | 357 kts | 199° |
| 2026-05-05 05:48 | 43.10969 | -79.81373 | 18293 ft | 360 kts | 199° |
| 2026-05-05 05:48 | 43.08530 | -79.82197 | 18718 ft | 363 kts | 199° |
| 2026-05-05 05:48 | 43.06068 | -79.83029 | 19139 ft | 366 kts | 199° |
| 2026-05-05 05:48 | 43.03593 | -79.83864 | 19554 ft | 368 kts | 199° |
| 2026-05-05 05:49 | 43.01122 | -79.84697 | 19953 ft | 371 kts | 199° |
| 2026-05-05 05:49 | 42.98603 | -79.85545 | 20366 ft | 374 kts | 199° |
| 2026-05-05 05:49 | 42.96069 | -79.86393 | 20760 ft | 377 kts | 199° |
| 2026-05-05 05:49 | 42.93510 | -79.87251 | 21151 ft | 380 kts | 199° |
| 2026-05-05 05:50 | 42.90929 | -79.88117 | 21546 ft | 383 kts | 199° |
| 2026-05-05 05:50 | 42.88331 | -79.88989 | 21951 ft | 386 kts | 199° |
| 2026-05-05 05:50 | 42.85709 | -79.89874 | 22338 ft | 389 kts | 199° |
| 2026-05-05 05:50 | 42.83074 | -79.90757 | 22721 ft | 392 kts | 198° |
| 2026-05-05 05:51 | 42.80394 | -79.91561 | 23107 ft | 395 kts | 196° |
| 2026-05-05 05:51 | 42.77678 | -79.92276 | 23429 ft | 399 kts | 195° |
| 2026-05-05 05:51 | 42.74937 | -79.92944 | 23726 ft | 402 kts | 194° |
| 2026-05-05 05:51 | 42.72175 | -79.93601 | 24058 ft | 404 kts | 194° |
| 2026-05-05 05:52 | 42.69433 | -79.94260 | 24389 ft | 406 kts | 194° |
| 2026-05-05 05:52 | 42.66648 | -79.94946 | 24724 ft | 407 kts | 195° |
| 2026-05-05 05:52 | 42.63849 | -79.95650 | 25057 ft | 409 kts | 195° |
| 2026-05-05 05:52 | 42.61039 | -79.96363 | 25385 ft | 410 kts | 195° |
| 2026-05-05 05:53 | 42.58227 | -79.97079 | 25707 ft | 412 kts | 195° |
| 2026-05-05 05:53 | 42.55435 | -79.97794 | 25978 ft | 414 kts | 195° |
| 2026-05-05 05:53 | 42.52593 | -79.98521 | 26282 ft | 416 kts | 194° |
| 2026-05-05 05:53 | 42.49744 | -79.99250 | 26589 ft | 418 kts | 194° |
| 2026-05-05 05:54 | 42.46876 | -79.99981 | 26896 ft | 420 kts | 194° |
| 2026-05-05 05:54 | 42.43990 | -80.00708 | 27200 ft | 422 kts | 194° |
| 2026-05-05 05:54 | 42.41096 | -80.01435 | 27504 ft | 423 kts | 194° |
| 2026-05-05 05:54 | 42.38215 | -80.02161 | 27792 ft | 425 kts | 194° |
| 2026-05-05 05:55 | 42.35287 | -80.02899 | 28081 ft | 427 kts | 194° |
| 2026-05-05 05:55 | 42.32357 | -80.03636 | 28361 ft | 428 kts | 194° |
| 2026-05-05 05:55 | 42.29452 | -80.04366 | 28629 ft | 430 kts | 194° |
| 2026-05-05 05:55 | 42.26503 | -80.05109 | 28893 ft | 431 kts | 194° |
| 2026-05-05 05:56 | 42.23499 | -80.05531 | 29163 ft | 438 kts | 185° |
| 2026-05-05 05:56 | 42.20431 | -80.05557 | 29418 ft | 440 kts | 185° |
| 2026-05-05 05:56 | 42.18398 | -80.05568 | 29579 ft | 441 kts | 185° |
| 2026-05-05 05:56 | 42.15313 | -80.05585 | 29778 ft | 444 kts | 184° |
| 2026-05-05 05:57 | 42.11210 | -80.05614 | 30135 ft | 444 kts | 184° |
| 2026-05-05 05:57 | 42.09122 | -80.05630 | 30353 ft | 443 kts | 185° |
| 2026-05-05 05:57 | 42.06071 | -80.05654 | 30672 ft | 443 kts | 185° |
| 2026-05-05 05:57 | 42.02993 | -80.05678 | 30999 ft | 442 kts | 185° |
| 2026-05-05 05:58 | 41.99912 | -80.05701 | 31318 ft | 441 kts | 185° |
| 2026-05-05 05:58 | 41.96844 | -80.05721 | 31633 ft | 441 kts | 184° |
| 2026-05-05 05:58 | 41.93761 | -80.05742 | 31847 ft | 442 kts | 184° |
| 2026-05-05 05:58 | 41.90712 | -80.05767 | 32114 ft | 443 kts | 184° |
| 2026-05-05 05:59 | 41.87623 | -80.05793 | 32414 ft | 443 kts | 184° |
| 2026-05-05 05:59 | 41.84542 | -80.05821 | 32739 ft | 442 kts | 184° |
| 2026-05-05 05:59 | 41.81455 | -80.05846 | 33040 ft | 442 kts | 184° |
| 2026-05-05 05:59 | 41.78381 | -80.05869 | 33337 ft | 442 kts | 184° |
| 2026-05-05 06:00 | 41.75296 | -80.05887 | 33622 ft | 441 kts | 185° |
| 2026-05-05 06:00 | 41.72223 | -80.05901 | 33897 ft | 441 kts | 185° |
| 2026-05-05 06:00 | 41.69156 | -80.05920 | 34155 ft | 440 kts | 185° |
| 2026-05-05 06:00 | 41.66139 | -80.05943 | 34410 ft | 439 kts | 185° |
| 2026-05-05 06:01 | 41.63085 | -80.05966 | 34661 ft | 439 kts | 185° |
| 2026-05-05 06:01 | 41.60034 | -80.05986 | 34751 ft | 437 kts | 185° |
| 2026-05-05 06:01 | 41.53970 | -80.06028 | 34755 ft | 433 kts | 184° |
| 2026-05-05 06:02 | 41.46822 | -80.06094 | 34803 ft | 433 kts | 184° |
| 2026-05-05 06:02 | 41.22727 | -80.06257 | 34752 ft | 434 kts | 184° |
| 2026-05-05 06:03 | 41.05716 | -80.06384 | 34846 ft | 432 kts | 183° |
| 2026-05-05 06:03 | 40.97257 | -80.06446 | 34819 ft | 432 kts | 183° |
| 2026-05-05 06:04 | 40.85179 | -80.06536 | 34814 ft | 435 kts | 183° |
| 2026-05-05 06:04 | 40.73042 | -80.06609 | 34832 ft | 436 kts | 183° |
| 2026-05-05 06:05 | 40.54438 | -80.06748 | 34832 ft | 437 kts | 183° |
| 2026-05-05 06:05 | 40.30028 | -80.06930 | 34842 ft | 438 kts | 183° |
| 2026-05-05 06:06 | 40.05617 | -80.07084 | 34861 ft | 438 kts | 183° |
| 2026-05-05 06:06 | 39.81224 | -80.07259 | 34872 ft | 438 kts | 183° |
| 2026-05-05 06:07 | 39.56930 | -80.07414 | 34881 ft | 439 kts | 184° |
| 2026-05-05 06:07 | 39.32474 | -80.07759 | 34917 ft | 438 kts | 184° |
| 2026-05-05 06:08 | 39.08106 | -80.08140 | 34914 ft | 437 kts | 184° |
| 2026-05-05 06:08 | 38.86179 | -80.10500 | 35034 ft | 427 kts | 200° |
| 2026-05-05 06:09 | 38.77557 | -80.13525 | 34947 ft | 427 kts | 199° |
| 2026-05-05 06:09 | 38.66106 | -80.17487 | 34926 ft | 428 kts | 199° |
| 2026-05-05 06:10 | 38.54558 | -80.21537 | 34951 ft | 430 kts | 199° |
| 2026-05-05 06:10 | 38.43072 | -80.25515 | 34960 ft | 430 kts | 199° |
| 2026-05-05 06:11 | 38.31492 | -80.29545 | 34971 ft | 430 kts | 199° |
| 2026-05-05 06:11 | 38.19964 | -80.33497 | 34952 ft | 430 kts | 199° |
| 2026-05-05 06:12 | 38.08380 | -80.37502 | 34955 ft | 430 kts | 199° |
| 2026-05-05 06:12 | 37.96813 | -80.41477 | 35000 ft | 431 kts | 199° |
| 2026-05-05 06:13 | 37.85291 | -80.45439 | 35013 ft | 431 kts | 199° |
| 2026-05-05 06:13 | 37.73684 | -80.49379 | 34991 ft | 431 kts | 199° |
| 2026-05-05 06:14 | 37.57718 | -80.54817 | 34974 ft | 431 kts | 199° |
| 2026-05-05 06:14 | 37.34686 | -80.62586 | 34968 ft | 432 kts | 199° |
| 2026-05-05 06:15 | 37.12338 | -80.70092 | 35039 ft | 432 kts | 199° |
| 2026-05-05 06:15 | 37.06362 | -80.71239 | 35026 ft | 441 kts | 184° |
| 2026-05-05 06:16 | 37.00210 | -80.71077 | 35015 ft | 442 kts | 184° |
| 2026-05-05 06:16 | 36.94094 | -80.70936 | 35010 ft | 442 kts | 184° |
| 2026-05-05 06:17 | 36.87929 | -80.70805 | 35039 ft | 442 kts | 184° |
| 2026-05-05 06:17 | 36.77547 | -80.70563 | 35042 ft | 443 kts | 184° |
| 2026-05-05 06:18 | 36.59528 | -80.70142 | 34995 ft | 443 kts | 184° |
| 2026-05-05 06:18 | 36.34995 | -80.69578 | 34965 ft | 444 kts | 184° |
| 2026-05-05 06:19 | 36.10130 | -80.68990 | 34974 ft | 447 kts | 184° |
| 2026-05-05 06:19 | 35.85265 | -80.68434 | 35012 ft | 447 kts | 184° |
| 2026-05-05 06:20 | 35.60491 | -80.67874 | 35054 ft | 448 kts | 184° |
| 2026-05-05 06:20 | 35.35464 | -80.67290 | 35063 ft | 449 kts | 184° |
| 2026-05-05 06:21 | 35.10443 | -80.66726 | 35042 ft | 449 kts | 184° |
| 2026-05-05 06:21 | 34.85601 | -80.66190 | 35047 ft | 450 kts | 184° |
| 2026-05-05 06:22 | 34.64704 | -80.65493 | 35057 ft | 457 kts | 175° |
| 2026-05-05 06:22 | 34.58529 | -80.63396 | 35049 ft | 462 kts | 166° |
| 2026-05-05 06:23 | 34.52407 | -80.61056 | 35057 ft | 463 kts | 167° |
| 2026-05-05 06:23 | 34.46230 | -80.58734 | 35063 ft | 464 kts | 167° |
| 2026-05-05 06:24 | 34.40091 | -80.56426 | 35085 ft | 464 kts | 167° |
| 2026-05-05 06:24 | 34.33918 | -80.54107 | 35072 ft | 464 kts | 167° |
| 2026-05-05 06:25 | 34.27680 | -80.52209 | 35084 ft | 457 kts | 178° |
| 2026-05-05 06:25 | 34.21426 | -80.52419 | 35087 ft | 445 kts | 196° |
| 2026-05-05 06:26 | 34.15436 | -80.54181 | 35087 ft | 442 kts | 199° |
| 2026-05-05 06:26 | 34.09477 | -80.55972 | 35041 ft | 443 kts | 199° |
| 2026-05-05 06:27 | 33.78828 | -80.65102 | 35068 ft | 447 kts | 199° |
| 2026-05-05 06:28 | 33.54604 | -80.72291 | 35067 ft | 447 kts | 200° |
| 2026-05-05 06:28 | 33.30343 | -80.79418 | 35085 ft | 450 kts | 200° |
| 2026-05-05 06:29 | 33.06139 | -80.86492 | 35107 ft | 450 kts | 200° |
| 2026-05-05 06:29 | 32.81779 | -80.93567 | 35046 ft | 450 kts | 201° |
| 2026-05-05 06:30 | 32.57132 | -81.00688 | 35103 ft | 455 kts | 201° |
| 2026-05-05 06:30 | 32.44252 | -81.02010 | 35127 ft | 476 kts | 188° |
| 2026-05-05 06:30 | 32.31293 | -81.02265 | 35075 ft | 472 kts | 188° |
| 2026-05-05 06:31 | 32.19379 | -81.02501 | 35112 ft | 474 kts | 189° |
| 2026-05-05 06:31 | 32.09544 | -81.02656 | 35062 ft | 475 kts | 189° |
| 2026-05-05 06:32 | 31.91084 | -81.03053 | 35090 ft | 477 kts | 190° |
| 2026-05-05 06:32 | 31.89580 | -81.03100 | 35087 ft | 477 kts | 190° |
| 2026-05-05 06:34 | 31.83984 | -81.03273 | 35078 ft | 477 kts | 190° |
| 2026-05-05 06:34 | 31.77344 | -81.03458 | 35079 ft | 477 kts | 190° |
| 2026-05-05 06:35 | 31.70701 | -81.03633 | 35044 ft | 478 kts | 190° |
| 2026-05-05 06:35 | 31.64049 | -81.03817 | 35061 ft | 478 kts | 190° |
| 2026-05-05 06:36 | 31.57387 | -81.04006 | 35074 ft | 479 kts | 191° |
| 2026-05-05 06:36 | 31.50748 | -81.04362 | 35075 ft | 477 kts | 192° |
| 2026-05-05 06:37 | 31.44124 | -81.04846 | 35048 ft | 477 kts | 193° |
| 2026-05-05 06:37 | 31.37499 | -81.05328 | 35061 ft | 477 kts | 192° |
| 2026-05-05 06:38 | 31.30858 | -81.05760 | 35076 ft | 478 kts | 192° |
| 2026-05-05 06:38 | 31.24245 | -81.06166 | 35087 ft | 479 kts | 191° |
| 2026-05-05 06:39 | 31.17562 | -81.06383 | 35048 ft | 481 kts | 189° |
| 2026-05-05 06:39 | 31.10856 | -81.06451 | 35064 ft | 482 kts | 189° |
| 2026-05-05 06:40 | 31.01735 | -81.06584 | 35078 ft | 481 kts | 189° |
| 2026-05-05 06:40 | 30.78286 | -81.07100 | 35064 ft | 481 kts | 189° |
| 2026-05-05 06:41 | 30.51492 | -81.08002 | 34984 ft | 483 kts | 192° |
| 2026-05-05 06:41 | 30.24782 | -81.09676 | 35080 ft | 478 kts | 192° |
| 2026-05-05 06:41 | 30.11581 | -81.10457 | 35181 ft | 476 kts | 192° |
| 2026-05-05 06:42 | 29.98219 | -81.11269 | 35176 ft | 482 kts | 192° |
| 2026-05-05 06:42 | 29.84751 | -81.11951 | 35044 ft | 494 kts | 185° |
| 2026-05-05 06:42 | 29.71786 | -81.07242 | 35065 ft | 518 kts | 163° |
| 2026-05-05 06:43 | 29.63176 | -81.03081 | 35069 ft | 519 kts | 163° |
| 2026-05-05 06:43 | 29.56492 | -80.99854 | 35081 ft | 520 kts | 163° |
| 2026-05-05 06:44 | 29.50954 | -80.97147 | 35039 ft | 521 kts | 163° |
| 2026-05-05 06:44 | 29.43164 | -80.93331 | 35084 ft | 524 kts | 163° |
| 2026-05-05 06:45 | 29.37568 | -80.90603 | 35102 ft | 524 kts | 163° |
| 2026-05-05 06:45 | 29.30850 | -80.87339 | 35113 ft | 523 kts | 163° |
| 2026-05-05 06:46 | 29.24168 | -80.84099 | 35111 ft | 521 kts | 163° |
| 2026-05-05 06:46 | 29.17468 | -80.80849 | 35070 ft | 521 kts | 163° |
| 2026-05-05 06:47 | 29.10829 | -80.77627 | 35064 ft | 522 kts | 163° |
| 2026-05-05 06:47 | 29.04101 | -80.74374 | 35063 ft | 522 kts | 163° |
| 2026-05-05 06:48 | 28.90699 | -80.68027 | 35028 ft | 520 kts | 165° |
| 2026-05-05 06:48 | 28.77199 | -80.62099 | 35062 ft | 520 kts | 165° |
| 2026-05-05 06:49 | 28.63781 | -80.56107 | 35048 ft | 521 kts | 165° |
| 2026-05-05 06:49 | 28.50315 | -80.50104 | 35055 ft | 519 kts | 165° |
| 2026-05-05 06:50 | 28.36883 | -80.44146 | 35055 ft | 517 kts | 165° |
| 2026-05-05 06:50 | 28.25459 | -80.39099 | 35048 ft | 516 kts | 165° |
| 2026-05-05 06:51 | 28.18766 | -80.36145 | 35057 ft | 515 kts | 165° |
| 2026-05-05 06:51 | 28.12089 | -80.33202 | 35063 ft | 514 kts | 165° |
| 2026-05-05 06:52 | 28.05388 | -80.30331 | 35069 ft | 513 kts | 167° |
| 2026-05-05 06:52 | 27.98695 | -80.27732 | 35042 ft | 510 kts | 168° |
| 2026-05-05 06:53 | 27.91947 | -80.25194 | 35072 ft | 510 kts | 168° |
| 2026-05-05 06:53 | 27.85225 | -80.22613 | 35071 ft | 510 kts | 168° |
| 2026-05-05 06:53 | 27.81866 | -80.21304 | 34773 ft | 512 kts | 167° |
| 2026-05-05 06:54 | 27.78486 | -80.19981 | 33814 ft | 515 kts | 167° |
| 2026-05-05 06:54 | 27.75097 | -80.18653 | 32758 ft | 516 kts | 167° |
| 2026-05-05 06:54 | 27.71698 | -80.17321 | 31846 ft | 513 kts | 167° |
| 2026-05-05 06:54 | 27.68423 | -80.16031 | 31338 ft | 497 kts | 167° |
| 2026-05-05 06:55 | 27.65191 | -80.14760 | 30721 ft | 485 kts | 167° |
| 2026-05-05 06:55 | 27.62037 | -80.13527 | 30215 ft | 471 kts | 167° |
| 2026-05-05 06:55 | 27.58977 | -80.12312 | 29638 ft | 459 kts | 167° |
| 2026-05-05 06:55 | 27.56015 | -80.11101 | 29152 ft | 447 kts | 167° |
| 2026-05-05 06:56 | 27.53129 | -80.09898 | 28657 ft | 437 kts | 166° |
| 2026-05-05 06:56 | 27.50291 | -80.08711 | 28175 ft | 432 kts | 167° |
| 2026-05-05 06:56 | 27.47481 | -80.07546 | 27702 ft | 428 kts | 167° |
| 2026-05-05 06:56 | 27.44727 | -80.06409 | 27240 ft | 424 kts | 167° |
| 2026-05-05 06:57 | 27.41960 | -80.05269 | 26766 ft | 422 kts | 167° |
| 2026-05-05 06:57 | 27.39210 | -80.04138 | 26318 ft | 419 kts | 167° |
| 2026-05-05 06:57 | 27.36466 | -80.03094 | 25872 ft | 413 kts | 170° |
| 2026-05-05 06:57 | 27.33720 | -80.02193 | 25452 ft | 408 kts | 172° |
| 2026-05-05 06:58 | 27.30988 | -80.01386 | 25024 ft | 404 kts | 173° |
| 2026-05-05 06:58 | 27.28262 | -80.00618 | 24604 ft | 401 kts | 173° |
| 2026-05-05 06:58 | 27.25564 | -79.99853 | 24185 ft | 399 kts | 173° |
| 2026-05-05 06:58 | 27.22921 | -79.99025 | 23759 ft | 399 kts | 171° |
| 2026-05-05 06:59 | 27.20274 | -79.98103 | 23285 ft | 398 kts | 169° |
| 2026-05-05 06:59 | 27.17654 | -79.97134 | 22847 ft | 394 kts | 168° |
| 2026-05-05 06:59 | 27.15065 | -79.96155 | 22400 ft | 390 kts | 168° |
| 2026-05-05 06:59 | 27.12501 | -79.95192 | 21978 ft | 386 kts | 168° |
| 2026-05-05 07:00 | 27.09955 | -79.94247 | 21532 ft | 383 kts | 169° |
| 2026-05-05 07:00 | 27.07434 | -79.93324 | 21121 ft | 379 kts | 169° |
| 2026-05-05 07:00 | 27.04936 | -79.92394 | 20686 ft | 377 kts | 168° |
| 2026-05-05 07:00 | 27.02497 | -79.91434 | 20254 ft | 376 kts | 167° |
| 2026-05-05 07:01 | 27.00027 | -79.90430 | 19811 ft | 374 kts | 166° |
| 2026-05-05 07:01 | 26.97585 | -79.89422 | 19372 ft | 373 kts | 166° |
| 2026-05-05 07:01 | 26.95156 | -79.88420 | 18932 ft | 371 kts | 166° |
| 2026-05-05 07:01 | 26.92732 | -79.87430 | 18502 ft | 369 kts | 166° |
| 2026-05-05 07:02 | 26.90350 | -79.86463 | 18042 ft | 368 kts | 165° |
| 2026-05-05 07:02 | 26.87947 | -79.85494 | 17602 ft | 364 kts | 165° |
| 2026-05-05 07:02 | 26.85572 | -79.84541 | 17180 ft | 361 kts | 165° |
| 2026-05-05 07:02 | 26.83216 | -79.83594 | 16782 ft | 357 kts | 165° |
| 2026-05-05 07:03 | 26.80879 | -79.82652 | 16334 ft | 355 kts | 165° |
| 2026-05-05 07:03 | 26.78559 | -79.81720 | 15916 ft | 352 kts | 165° |
| 2026-05-05 07:03 | 26.76257 | -79.80798 | 15504 ft | 350 kts | 165° |
| 2026-05-05 07:03 | 26.73968 | -79.79878 | 15092 ft | 348 kts | 165° |
| 2026-05-05 07:04 | 26.71689 | -79.79175 | 14686 ft | 340 kts | 176° |
| 2026-05-05 07:04 | 26.69359 | -79.79056 | 14288 ft | 331 kts | 189° |
| 2026-05-05 07:04 | 26.67119 | -79.79499 | 13890 ft | 324 kts | 200° |
| 2026-05-05 07:04 | 26.65005 | -79.80338 | 13465 ft | 320 kts | 204° |
| 2026-05-05 07:05 | 26.62934 | -79.81186 | 13242 ft | 312 kts | 204° |
| 2026-05-05 07:05 | 26.60912 | -79.82007 | 12889 ft | 309 kts | 204° |
| 2026-05-05 07:05 | 26.58895 | -79.82827 | 12466 ft | 306 kts | 203° |
| 2026-05-05 07:05 | 26.56904 | -79.83634 | 11959 ft | 301 kts | 203° |
| 2026-05-05 07:06 | 26.54962 | -79.84426 | 11539 ft | 293 kts | 204° |
| 2026-05-05 07:06 | 26.53092 | -79.85256 | 11155 ft | 285 kts | 206° |
| 2026-05-05 07:06 | 26.51288 | -79.86105 | 10783 ft | 277 kts | 206° |
| 2026-05-05 07:06 | 26.49557 | -79.86938 | 10419 ft | 273 kts | 207° |
| 2026-05-05 07:07 | 26.47809 | -79.87783 | 10058 ft | 272 kts | 207° |
| 2026-05-05 07:07 | 26.46067 | -79.88620 | 9660 ft | 272 kts | 206° |
| 2026-05-05 07:07 | 26.44331 | -79.89446 | 9279 ft | 270 kts | 206° |
| 2026-05-05 07:07 | 26.42605 | -79.90261 | 8905 ft | 269 kts | 206° |
| 2026-05-05 07:08 | 26.40882 | -79.91070 | 8540 ft | 267 kts | 205° |
| 2026-05-05 07:08 | 26.39175 | -79.91871 | 8177 ft | 265 kts | 205° |
| 2026-05-05 07:08 | 26.37552 | -79.92764 | 7856 ft | 262 kts | 213° |
| 2026-05-05 07:08 | 26.35947 | -79.93806 | 7644 ft | 271 kts | 212° |
| 2026-05-05 07:09 | 26.34310 | -79.94860 | 7388 ft | 273 kts | 211° |
| 2026-05-05 07:09 | 26.32666 | -79.95914 | 6988 ft | 269 kts | 211° |
| 2026-05-05 07:09 | 26.31040 | -79.96956 | 6614 ft | 270 kts | 211° |
| 2026-05-05 07:09 | 26.29403 | -79.98003 | 6225 ft | 271 kts | 211° |
| 2026-05-05 07:10 | 26.27708 | -79.98931 | 5822 ft | 272 kts | 199° |
| 2026-05-05 07:10 | 26.25856 | -79.99357 | 5425 ft | 273 kts | 184° |
| 2026-05-05 07:10 | 26.23965 | -79.99271 | 5038 ft | 272 kts | 175° |
| 2026-05-05 07:10 | 26.22076 | -79.99087 | 4647 ft | 271 kts | 175° |
| 2026-05-05 07:11 | 26.20196 | -79.98913 | 4251 ft | 271 kts | 175° |
| 2026-05-05 07:11 | 26.18319 | -79.98701 | 3854 ft | 269 kts | 167° |
| 2026-05-05 07:11 | 26.16653 | -79.97889 | 3468 ft | 263 kts | 141° |
| 2026-05-05 07:11 | 26.15464 | -79.96384 | 3086 ft | 258 kts | 116° |
| 2026-05-05 07:12 | 26.14976 | -79.94497 | 2985 ft | 254 kts | 92° |
| 2026-05-05 07:12 | 26.14982 | -79.92516 | 2990 ft | 256 kts | 89° |
| 2026-05-05 07:12 | 26.14884 | -79.90542 | 2991 ft | 256 kts | 104° |
| 2026-05-05 07:12 | 26.14055 | -79.88828 | 2914 ft | 258 kts | 133° |
| 2026-05-05 07:13 | 26.12570 | -79.87742 | 2719 ft | 259 kts | 159° |
| 2026-05-05 07:13 | 26.10815 | -79.87521 | 2536 ft | 254 kts | 186° |
| 2026-05-05 07:13 | 26.09195 | -79.88192 | 2482 ft | 244 kts | 207° |
| 2026-05-05 07:13 | 26.07962 | -79.89422 | 2474 ft | 238 kts | 234° |
| 2026-05-05 07:14 | 26.07089 | -79.91009 | 2485 ft | 240 kts | 239° |
| 2026-05-05 07:14 | 26.06488 | -79.92676 | 2476 ft | 227 kts | 262° |
| 2026-05-05 07:14 | 26.06442 | -79.94425 | 2474 ft | 227 kts | 270° |
| 2026-05-05 07:14 | 26.06457 | -79.96186 | 2478 ft | 220 kts | 271° |
| 2026-05-05 07:15 | 26.06469 | -79.97796 | 2467 ft | 197 kts | 270° |
| 2026-05-05 07:15 | 26.06480 | -79.99260 | 2415 ft | 185 kts | 272° |
| 2026-05-05 07:15 | 26.06490 | -80.00665 | 2232 ft | 180 kts | 271° |
| 2026-05-05 07:15 | 26.06499 | -80.02038 | 2023 ft | 181 kts | 271° |
| 2026-05-05 07:16 | 26.06509 | -80.03438 | 1813 ft | 180 kts | 270° |
| 2026-05-05 07:16 | 26.06519 | -80.04832 | 1556 ft | 180 kts | 270° |
| 2026-05-05 07:16 | 26.06528 | -80.06233 | 1311 ft | 184 kts | 271° |
| 2026-05-05 07:16 | 26.06537 | -80.07665 | 1070 ft | 185 kts | 272° |
| 2026-05-05 07:17 | 26.06546 | -80.09080 | 823 ft | 179 kts | 272° |
| 2026-05-05 07:17 | 26.06555 | -80.10457 | 623 ft | 178 kts | 270° |
| 2026-05-05 07:17 | 26.06562 | -80.11799 | 380 ft | 169 kts | 272° |
| 2026-05-05 07:17 | 26.06568 | -80.13072 | 150 ft | 160 kts | 274° |
| 2026-05-05 07:18 | 26.06587 | -80.14223 | 59 ft | 132 kts | 271° |
| 2026-05-05 07:18 | 26.06584 | -80.15028 | 19 ft | 79 kts | 270° |
| 2026-05-05 07:18 | 26.06588 | -80.15451 | 23 ft | 35 kts | 270° |
| 2026-05-05 07:18 | 26.06591 | -80.15668 | 22 ft | 22 kts | 271° |
| 2026-05-05 07:19 | 26.06643 | -80.15739 | 18 ft | 14 kts | 356° |
| 2026-05-05 07:19 | 26.06697 | -80.15671 | 16 ft | 13 kts | 85° |
| 2026-05-05 07:19 | 26.06696 | -80.15574 | 16 ft | 12 kts | 91° |
| 2026-05-05 07:19 | 26.06694 | -80.15484 | 16 ft | 11 kts | 90° |
| 2026-05-05 07:20 | 26.06694 | -80.15398 | 16 ft | 11 kts | 90° |
| 2026-05-05 07:20 | 26.06695 | -80.15315 | 16 ft | 11 kts | 89° |
| 2026-05-05 07:20 | 26.06696 | -80.15239 | 20 ft | 8 kts | 90° |
| 2026-05-05 07:20 | 26.06696 | -80.15196 | 21 ft | 7 kts | 90° |
| 2026-05-05 07:21 | 26.06696 | -80.15097 | 20 ft | 16 kts | 90° |
| 2026-05-05 07:21 | 26.06695 | -80.14972 | 18 ft | 16 kts | 89° |
| 2026-05-05 07:21 | 26.06758 | -80.14888 | 16 ft | 15 kts | 57° |
| 2026-05-05 07:21 | 26.06766 | -80.14775 | 15 ft | 15 kts | 89° |
| 2026-05-05 07:22 | 26.06766 | -80.14661 | 15 ft | 14 kts | 90° |
| 2026-05-05 07:22 | 26.06782 | -80.14593 | 17 ft | 7 kts | 39° |
| 2026-05-05 07:22 | 26.06829 | -80.14579 | 16 ft | 7 kts | 11° |
| 2026-05-05 07:22 | 26.06869 | -80.14560 | 16 ft | 1 kts | 25° |
| 2026-05-05 07:23 | 26.06873 | -80.14558 | 16 ft | 0 kts | 24° |